createdAt,value
2022-11-27T00:01:26.341Z,11.00
2022-11-27T00:03:56.351Z,11.00
2022-11-27T00:06:25.115Z,11.00
2022-11-27T00:08:52.106Z,11.10
2022-11-27T00:11:23.786Z,11.10
2022-11-27T00:13:51.514Z,11.00
2022-11-27T00:16:19.273Z,11.10
2022-11-27T00:18:46.457Z,11.00
2022-11-27T00:21:16.291Z,11.00
2022-11-27T00:23:43.298Z,11.00
2022-11-27T00:26:10.455Z,11.00
2022-11-27T00:28:38.362Z,11.00
2022-11-27T00:31:27.488Z,11.00
2022-11-27T00:33:55.211Z,11.00
2022-11-27T00:36:22.029Z,11.00
2022-11-27T00:38:48.957Z,11.00
2022-11-27T00:41:20.368Z,11.00
2022-11-27T00:43:47.276Z,11.00
2022-11-27T00:46:18.078Z,11.00
2022-11-27T00:48:45.896Z,10.90
2022-11-27T00:51:18.743Z,10.90
2022-11-27T00:53:45.648Z,10.90
2022-11-27T00:56:16.261Z,10.90
2022-11-27T00:58:43.265Z,10.90
2022-11-27T01:01:21.085Z,10.90
2022-11-27T01:03:48.544Z,10.90
2022-11-27T01:06:15.733Z,10.80
2022-11-27T01:08:42.764Z,10.80
2022-11-27T01:11:17.523Z,10.90
2022-11-27T01:13:44.506Z,10.80
2022-11-27T01:16:23.487Z,10.80
2022-11-27T01:18:50.976Z,10.80
2022-11-27T01:21:19.297Z,10.80
2022-11-27T01:23:46.417Z,10.80
2022-11-27T01:26:13.455Z,10.90
2022-11-27T01:28:40.525Z,10.80
2022-11-27T01:31:18.293Z,10.80
2022-11-27T01:33:45.779Z,10.80
2022-11-27T01:36:15.898Z,10.90
2022-11-27T01:38:42.881Z,10.90
2022-11-27T01:41:13.923Z,10.90
2022-11-27T01:43:53.283Z,10.90
2022-11-27T01:46:41.917Z,10.90
2022-11-27T01:49:08.862Z,10.90
2022-11-27T01:51:58.252Z,10.90
2022-11-27T01:54:27.485Z,10.90
2022-11-27T01:56:57.130Z,10.80
2022-11-27T01:59:24.001Z,10.80
2022-11-27T02:01:51.069Z,10.80
2022-11-27T02:04:18.920Z,10.80
2022-11-27T02:06:46.272Z,10.90
2022-11-27T02:09:13.109Z,10.90
2022-11-27T02:11:54.992Z,10.90
2022-11-27T02:14:51.632Z,10.90
2022-11-27T02:17:24.498Z,10.90
2022-11-27T02:19:54.313Z,10.90
2022-11-27T02:22:51.755Z,10.90
2022-11-27T02:25:40.104Z,11.00
2022-11-27T02:28:24.743Z,11.00
2022-11-27T02:30:55.067Z,11.00
2022-11-27T02:33:22.111Z,11.00
2022-11-27T02:35:52.505Z,11.00
2022-11-27T02:38:30.383Z,11.00
2022-11-27T02:41:23.805Z,11.00
2022-11-27T02:43:50.758Z,11.10
2022-11-27T02:46:18.684Z,11.00
2022-11-27T02:48:49.342Z,11.10
2022-11-27T02:51:18.344Z,11.10
2022-11-27T02:53:48.480Z,11.10
2022-11-27T02:56:17.103Z,11.10
2022-11-27T02:58:43.928Z,11.20
2022-11-27T03:01:10.882Z,11.20
2022-11-27T03:03:40.650Z,11.20
2022-11-27T03:06:10.199Z,11.20
2022-11-27T03:08:42.001Z,11.30
2022-11-27T03:11:13.990Z,11.30
2022-11-27T03:13:43.696Z,11.30
2022-11-27T03:16:34.581Z,11.30
2022-11-27T03:19:20.573Z,11.30
2022-11-27T03:22:01.296Z,11.30
2022-11-27T03:24:28.802Z,11.40
2022-11-27T03:26:57.137Z,11.40
2022-11-27T03:29:35.313Z,11.40
2022-11-27T03:32:02.476Z,11.40
2022-11-27T03:34:29.351Z,11.40
2022-11-27T03:36:56.165Z,11.50
2022-11-27T03:39:23.036Z,11.50
2022-11-27T03:42:17.995Z,11.50
2022-11-27T03:44:56.869Z,11.50
2022-11-27T03:47:42.353Z,11.50
2022-11-27T03:50:43.116Z,11.50
2022-11-27T03:53:28.998Z,11.60
2022-11-27T03:56:10.293Z,11.60
2022-11-27T03:58:50.391Z,11.60
2022-11-27T04:01:17.914Z,11.60
2022-11-27T04:03:44.803Z,11.60
2022-11-27T04:06:11.925Z,11.60
2022-11-27T04:08:39.221Z,11.60
2022-11-27T04:11:06.200Z,11.60
2022-11-27T04:13:33.064Z,11.60
2022-11-27T04:16:06.099Z,11.60
2022-11-27T04:18:33.044Z,11.60
2022-11-27T04:20:59.830Z,11.60
2022-11-27T04:23:26.684Z,11.60
2022-11-27T04:25:53.544Z,11.60
2022-11-27T04:28:22.437Z,11.60
2022-11-27T04:30:53.251Z,11.60
2022-11-27T04:33:20.185Z,11.70
2022-11-27T04:35:47.009Z,11.70
2022-11-27T04:38:13.852Z,11.70
2022-11-27T04:40:40.658Z,11.70
2022-11-27T04:43:07.517Z,11.70
2022-11-27T04:45:34.369Z,11.70
2022-11-27T04:48:01.225Z,11.70
2022-11-27T04:50:28.217Z,11.80
2022-11-27T04:52:55.096Z,11.70
2022-11-27T04:55:21.980Z,11.70
2022-11-27T04:57:48.783Z,11.80
2022-11-27T05:00:16.010Z,11.80
2022-11-27T05:02:42.902Z,11.80
2022-11-27T05:05:09.970Z,11.80
2022-11-27T05:07:37.494Z,11.80
2022-11-27T05:10:05.882Z,11.80
2022-11-27T05:12:32.689Z,11.80
2022-11-27T05:15:04.057Z,11.80
2022-11-27T05:17:32.635Z,11.80
2022-11-27T05:19:59.483Z,11.90
2022-11-27T05:22:26.272Z,11.90
2022-11-27T05:24:53.113Z,11.90
2022-11-27T05:27:19.993Z,11.90
2022-11-27T05:29:47.026Z,11.90
2022-11-27T05:32:14.037Z,11.90
2022-11-27T05:34:41.145Z,11.90
2022-11-27T05:37:08.348Z,11.90
2022-11-27T05:39:35.544Z,11.90
2022-11-27T05:42:02.562Z,11.90
2022-11-27T05:44:29.524Z,11.90
2022-11-27T05:46:57.298Z,11.90
2022-11-27T05:49:24.275Z,11.90
2022-11-27T05:51:51.889Z,11.90
2022-11-27T05:54:19.032Z,11.90
2022-11-27T05:56:48.764Z,11.90
2022-11-27T05:59:15.997Z,12.00
2022-11-27T06:01:43.286Z,12.00
2022-11-27T06:04:13.055Z,12.00
2022-11-27T06:06:39.943Z,12.00
2022-11-27T06:09:12.157Z,12.00
2022-11-27T06:11:42.016Z,12.00
2022-11-27T06:14:09.902Z,12.00
2022-11-27T06:16:37.093Z,12.00
2022-11-27T06:19:07.562Z,12.00
2022-11-27T06:21:34.442Z,12.10
2022-11-27T06:24:03.976Z,12.00
2022-11-27T06:26:34.139Z,12.00
2022-11-27T06:29:01.465Z,12.00
2022-11-27T06:31:30.078Z,12.00
2022-11-27T06:33:59.271Z,12.00
2022-11-27T06:36:29.333Z,12.00
2022-11-27T06:38:56.310Z,12.10
2022-11-27T06:41:24.649Z,12.00
2022-11-27T06:43:51.550Z,12.10
2022-11-27T06:46:19.792Z,12.10
2022-11-27T06:48:47.611Z,12.00
2022-11-27T06:51:19.810Z,12.00
2022-11-27T06:53:46.679Z,12.00
2022-11-27T06:56:15.037Z,12.00
2022-11-27T06:58:41.937Z,12.10
2022-11-27T07:01:12.812Z,12.10
2022-11-27T07:03:39.838Z,12.10
2022-11-27T07:06:07.756Z,12.10
2022-11-27T07:08:34.957Z,12.10
2022-11-27T07:11:23.194Z,12.10
2022-11-27T07:13:54.369Z,12.10
2022-11-27T07:16:21.353Z,12.10
2022-11-27T07:18:53.238Z,12.10
2022-11-27T07:21:23.176Z,12.10
2022-11-27T07:23:50.230Z,12.10
2022-11-27T07:26:19.363Z,12.10
2022-11-27T07:28:46.388Z,12.10
2022-11-27T07:31:14.515Z,12.10
2022-11-27T07:33:41.760Z,12.00
2022-11-27T07:36:17.106Z,12.00
2022-11-27T07:38:44.540Z,12.10
2022-11-27T07:41:11.845Z,12.10
2022-11-27T07:43:40.113Z,12.10
2022-11-27T07:46:17.998Z,12.10
2022-11-27T07:48:47.106Z,12.10
2022-11-27T07:51:17.882Z,12.10
2022-11-27T07:53:44.897Z,12.10
2022-11-27T07:56:14.539Z,12.10
2022-11-27T07:58:41.423Z,12.10
2022-11-27T08:01:09.737Z,12.20
2022-11-27T08:03:37.005Z,12.20
2022-11-27T08:06:13.041Z,12.20
2022-11-27T08:08:39.870Z,12.20
2022-11-27T08:11:08.568Z,12.20
2022-11-27T08:13:35.372Z,12.20
2022-11-27T08:16:02.299Z,12.20
2022-11-27T08:18:29.347Z,12.20
2022-11-27T08:20:56.248Z,12.20
2022-11-27T08:23:26.173Z,12.20
2022-11-27T08:25:53.104Z,12.20
2022-11-27T08:28:19.904Z,12.30
2022-11-27T08:30:49.181Z,12.20
2022-11-27T08:33:15.998Z,12.30
2022-11-27T08:35:48.882Z,12.30
2022-11-27T08:38:16.070Z,12.30
2022-11-27T08:40:42.976Z,12.30
2022-11-27T08:43:09.908Z,12.30
2022-11-27T08:45:39.269Z,12.30
2022-11-27T08:48:06.412Z,12.30
2022-11-27T08:50:33.352Z,12.30
2022-11-27T08:53:00.254Z,12.30
2022-11-27T08:55:27.118Z,12.30
2022-11-27T08:57:54.337Z,12.40
2022-11-27T09:00:27.577Z,12.30
2022-11-27T09:02:58.974Z,12.30
2022-11-27T09:05:26.346Z,12.40
2022-11-27T09:07:53.421Z,12.30
2022-11-27T09:10:23.297Z,12.30
2022-11-27T09:12:50.443Z,12.40
2022-11-27T09:15:17.636Z,12.40
2022-11-27T09:17:44.702Z,12.40
2022-11-27T09:20:14.272Z,12.40
2022-11-27T09:22:41.187Z,12.40
2022-11-27T09:25:09.713Z,12.40
2022-11-27T09:27:37.547Z,12.40
2022-11-27T09:30:06.846Z,12.50
2022-11-27T09:32:33.693Z,12.50
2022-11-27T09:35:00.594Z,12.50
2022-11-27T09:37:27.605Z,12.50
2022-11-27T09:39:57.889Z,12.60
2022-11-27T09:42:54.626Z,12.60
2022-11-27T09:45:21.642Z,12.60
2022-11-27T09:47:59.404Z,12.60
2022-11-27T09:50:31.100Z,12.60
2022-11-27T09:52:59.194Z,12.60
2022-11-27T09:55:27.316Z,12.60
2022-11-27T09:57:59.149Z,12.70
2022-11-27T10:00:26.238Z,12.60
2022-11-27T10:02:56.045Z,12.60
2022-11-27T10:05:31.387Z,12.60
2022-11-27T10:08:21.631Z,12.60
2022-11-27T10:10:57.432Z,12.70
2022-11-27T10:13:42.241Z,12.70
2022-11-27T10:16:12.086Z,12.70
2022-11-27T10:19:04.570Z,12.70
2022-11-27T10:22:21.368Z,12.70
2022-11-27T10:25:15.320Z,12.70
2022-11-27T10:27:47.074Z,12.80
2022-11-27T10:30:19.364Z,12.70
2022-11-27T10:32:55.265Z,12.80
2022-11-27T10:35:24.918Z,12.80
2022-11-27T10:38:11.559Z,12.80
2022-11-27T10:41:18.552Z,12.80
2022-11-27T10:43:56.493Z,12.80
2022-11-27T10:46:31.410Z,12.80
2022-11-27T10:48:58.269Z,12.90
2022-11-27T10:51:32.356Z,12.80
2022-11-27T10:54:02.613Z,12.90
2022-11-27T10:56:50.456Z,12.90
2022-11-27T10:59:31.320Z,12.90
2022-11-27T11:02:01.110Z,12.90
2022-11-27T11:04:38.275Z,13.00
2022-11-27T11:07:26.089Z,13.00
2022-11-27T11:09:53.491Z,13.00
2022-11-27T11:12:21.629Z,13.00
2022-11-27T11:14:55.202Z,13.00
2022-11-27T11:17:34.399Z,13.10
2022-11-27T11:20:01.595Z,13.10
2022-11-27T11:22:28.498Z,13.10
2022-11-27T11:24:55.315Z,13.10
2022-11-27T11:27:30.125Z,13.20
2022-11-27T11:30:01.826Z,13.20
2022-11-27T11:32:31.044Z,13.20
2022-11-27T11:35:04.666Z,13.20
2022-11-27T11:37:35.896Z,13.20
2022-11-27T11:40:16.033Z,13.20
2022-11-27T11:43:09.968Z,13.20
2022-11-27T11:45:45.794Z,13.20
2022-11-27T11:48:26.412Z,13.20
2022-11-27T11:51:00.205Z,13.30
2022-11-27T11:53:37.000Z,13.30
2022-11-27T11:56:26.071Z,13.20
2022-11-27T11:58:54.599Z,13.20
2022-11-27T12:01:36.633Z,13.20
2022-11-27T12:04:22.401Z,13.20
2022-11-27T12:07:02.437Z,13.30
2022-11-27T12:09:56.957Z,13.30
2022-11-27T12:12:42.628Z,13.30
2022-11-27T12:15:19.443Z,13.30
2022-11-27T12:18:00.985Z,13.30
2022-11-27T12:20:53.802Z,13.30
2022-11-27T12:24:00.477Z,13.30
2022-11-27T12:26:55.115Z,13.40
2022-11-27T12:29:31.768Z,13.40
2022-11-27T12:32:16.550Z,13.40
2022-11-27T12:34:46.576Z,13.40
2022-11-27T12:37:38.701Z,13.40
2022-11-27T12:40:26.519Z,13.50
2022-11-27T12:42:56.933Z,13.50
2022-11-27T12:45:38.965Z,13.50
2022-11-27T12:48:26.223Z,13.50
2022-11-27T12:51:11.343Z,13.50
2022-11-27T12:53:45.793Z,13.60
2022-11-27T12:56:30.603Z,13.60
2022-11-27T12:59:02.848Z,13.60
2022-11-27T13:01:34.690Z,13.60
2022-11-27T13:04:19.553Z,13.60
2022-11-27T13:07:09.249Z,13.60
2022-11-27T13:09:51.041Z,13.60
2022-11-27T13:12:36.470Z,13.60
2022-11-27T13:16:20.001Z,13.60
2022-11-27T13:18:51.097Z,13.60
2022-11-27T13:21:22.778Z,13.60
2022-11-27T13:23:50.813Z,13.60
2022-11-27T13:26:26.678Z,13.60
2022-11-27T13:28:58.943Z,13.60
2022-11-27T13:31:31.494Z,13.60
2022-11-27T13:34:00.445Z,13.60
2022-11-27T13:36:47.106Z,13.60
2022-11-27T13:39:24.541Z,13.60
2022-11-27T13:42:06.845Z,13.60
2022-11-27T13:44:40.125Z,13.60
2022-11-27T13:47:10.719Z,13.70
2022-11-27T13:49:42.000Z,13.60
2022-11-27T13:52:25.093Z,13.70
2022-11-27T13:54:57.344Z,13.70
2022-11-27T13:57:24.252Z,13.70
2022-11-27T14:00:13.983Z,13.70
2022-11-27T14:02:51.178Z,13.60
2022-11-27T14:05:20.035Z,13.70
2022-11-27T14:07:52.539Z,13.70
2022-11-27T14:10:24.792Z,13.70
2022-11-27T14:12:52.853Z,13.70
2022-11-27T14:15:23.455Z,13.70
2022-11-27T14:17:51.642Z,13.70
2022-11-27T14:20:18.547Z,13.70
2022-11-27T14:23:10.014Z,13.60
2022-11-27T14:25:36.512Z,13.60
2022-11-27T14:28:16.798Z,13.50
2022-11-27T14:30:48.233Z,13.50
2022-11-27T14:33:47.541Z,13.60
2022-11-27T14:36:26.530Z,13.50
2022-11-27T14:38:53.515Z,13.50
2022-11-27T14:41:22.662Z,13.50
2022-11-27T14:43:59.164Z,13.50
2022-11-27T14:46:26.646Z,13.50
2022-11-27T14:48:57.307Z,13.50
2022-11-27T14:51:29.006Z,13.50
2022-11-27T14:54:09.362Z,13.40
2022-11-27T14:56:37.877Z,13.40
2022-11-27T14:59:04.798Z,13.50
2022-11-27T15:01:33.281Z,13.50
2022-11-27T15:04:05.608Z,13.40
2022-11-27T15:06:45.093Z,13.50
2022-11-27T15:09:31.612Z,13.40
2022-11-27T15:12:19.128Z,13.40
2022-11-27T15:15:09.943Z,13.40
2022-11-27T15:17:41.573Z,13.40
2022-11-27T15:20:36.665Z,13.40
2022-11-27T15:23:03.692Z,13.40
2022-11-27T15:25:40.401Z,13.40
2022-11-27T15:28:32.433Z,13.40
2022-11-27T15:31:01.443Z,13.30
2022-11-27T15:33:32.958Z,13.40
2022-11-27T15:36:21.577Z,13.30
2022-11-27T15:38:50.910Z,13.30
2022-11-27T15:41:28.626Z,13.40
2022-11-27T15:43:56.384Z,13.30
2022-11-27T15:46:25.592Z,13.30
2022-11-27T15:48:52.803Z,13.30
2022-11-27T15:51:19.824Z,13.30
2022-11-27T15:53:48.838Z,13.20
2022-11-27T15:56:16.181Z,13.20
2022-11-27T15:58:43.340Z,13.20
2022-11-27T16:01:10.765Z,13.20
2022-11-27T16:03:39.859Z,13.20
2022-11-27T16:06:07.814Z,13.20
2022-11-27T16:08:37.913Z,13.10
2022-11-27T16:11:07.201Z,13.10
2022-11-27T16:13:36.312Z,13.10
2022-11-27T16:16:04.386Z,13.10
2022-11-27T16:18:32.225Z,13.10
2022-11-27T16:21:06.959Z,13.00
2022-11-27T16:23:35.747Z,13.00
2022-11-27T16:26:02.815Z,12.90
2022-11-27T16:28:30.566Z,12.90
2022-11-27T16:30:58.772Z,12.80
2022-11-27T16:33:29.415Z,12.80
2022-11-27T16:35:57.107Z,12.80
2022-11-27T16:38:23.989Z,12.70
2022-11-27T16:40:53.544Z,12.70
2022-11-27T16:43:21.476Z,12.80
2022-11-27T16:45:51.443Z,12.70
2022-11-27T16:48:20.080Z,12.70
2022-11-27T16:50:47.539Z,12.60
2022-11-27T16:53:14.393Z,12.60
2022-11-27T16:55:41.410Z,12.60
2022-11-27T16:58:11.465Z,12.60
2022-11-27T17:00:44.954Z,12.60
2022-11-27T17:03:11.916Z,12.60
2022-11-27T17:05:39.061Z,12.60
2022-11-27T17:08:05.962Z,12.60
2022-11-27T17:10:32.818Z,12.60
2022-11-27T17:12:59.732Z,12.60
2022-11-27T17:15:26.684Z,12.50
2022-11-27T17:17:57.546Z,12.50
2022-11-27T17:20:24.684Z,12.50
2022-11-27T17:22:52.270Z,12.50
2022-11-27T17:25:19.400Z,12.40
2022-11-27T17:27:48.289Z,12.40
2022-11-27T17:30:15.597Z,12.40
2022-11-27T17:32:42.440Z,12.30
2022-11-27T17:35:09.641Z,12.30
2022-11-27T17:37:36.536Z,12.30
2022-11-27T17:40:03.607Z,12.30
2022-11-27T17:42:30.564Z,12.20
2022-11-27T17:44:58.041Z,12.20
2022-11-27T17:47:24.923Z,12.20
2022-11-27T17:49:52.212Z,12.20
2022-11-27T17:52:19.664Z,12.10
2022-11-27T17:54:47.185Z,12.10
2022-11-27T17:57:17.045Z,12.10
2022-11-27T17:59:44.188Z,12.10
2022-11-27T18:02:11.865Z,12.10
2022-11-27T18:04:39.012Z,12.10
2022-11-27T18:07:06.010Z,12.00
2022-11-27T18:09:32.888Z,12.00
2022-11-27T18:12:00.033Z,12.00
2022-11-27T18:14:29.806Z,12.10
2022-11-27T18:16:58.364Z,12.00
2022-11-27T18:19:25.214Z,12.10
2022-11-27T18:21:52.252Z,12.00
2022-11-27T18:24:24.704Z,12.00
2022-11-27T18:27:10.801Z,12.00
2022-11-27T18:29:39.471Z,12.10
2022-11-27T18:32:06.928Z,12.10
2022-11-27T18:34:34.060Z,12.10
2022-11-27T18:37:01.089Z,12.10
2022-11-27T18:39:28.029Z,12.00
2022-11-27T18:41:55.146Z,11.90
2022-11-27T18:44:22.779Z,11.80
2022-11-27T18:46:50.673Z,11.80
2022-11-27T18:49:18.330Z,11.70
2022-11-27T18:51:46.416Z,11.70
2022-11-27T18:54:13.567Z,11.70
2022-11-27T18:56:40.613Z,11.80
2022-11-27T18:59:09.210Z,11.80
2022-11-27T19:01:42.020Z,11.80
2022-11-27T19:04:10.686Z,11.90
2022-11-27T19:06:37.704Z,11.90
2022-11-27T19:09:05.652Z,11.90
2022-11-27T19:11:33.941Z,11.90
2022-11-27T19:14:01.020Z,11.90
2022-11-27T19:16:31.270Z,11.90
2022-11-27T19:19:01.716Z,11.80
2022-11-27T19:21:29.922Z,11.80
2022-11-27T19:23:58.033Z,11.80
2022-11-27T19:26:29.932Z,11.80
2022-11-27T19:28:59.238Z,11.80
2022-11-27T19:31:26.415Z,11.70
2022-11-27T19:33:58.855Z,11.70
2022-11-27T19:36:25.730Z,11.70
2022-11-27T19:38:56.847Z,11.60
2022-11-27T19:41:24.607Z,11.60
2022-11-27T19:43:51.715Z,11.60
2022-11-27T19:46:25.405Z,11.70
2022-11-27T19:48:56.507Z,11.60
2022-11-27T19:51:24.069Z,11.70
2022-11-27T19:53:52.355Z,11.70
2022-11-27T19:56:19.611Z,11.70
2022-11-27T19:58:46.590Z,11.70
2022-11-27T20:01:15.449Z,11.70
2022-11-27T20:03:43.192Z,11.70
2022-11-27T20:06:11.236Z,11.60
2022-11-27T20:08:41.021Z,11.60
2022-11-27T20:11:09.152Z,11.60
2022-11-27T20:13:36.261Z,11.60
2022-11-27T20:16:10.043Z,11.50
2022-11-27T20:18:37.728Z,11.50
2022-11-27T20:21:18.671Z,11.50
2022-11-27T20:23:48.496Z,11.50
2022-11-27T20:26:20.742Z,11.50
2022-11-27T20:28:48.118Z,11.50
2022-11-27T20:31:34.504Z,11.50
2022-11-27T20:34:02.735Z,11.60
2022-11-27T20:36:32.062Z,11.60
2022-11-27T20:38:59.858Z,11.60
2022-11-27T20:41:28.109Z,11.60
2022-11-27T20:43:57.930Z,11.60
2022-11-27T20:46:24.998Z,11.60
2022-11-27T20:48:52.458Z,11.60
2022-11-27T20:51:21.333Z,11.60
2022-11-27T20:53:48.596Z,11.50
2022-11-27T20:56:16.737Z,11.50
2022-11-27T20:58:44.012Z,11.50
2022-11-27T21:01:19.966Z,11.50
2022-11-27T21:03:48.946Z,11.50
2022-11-27T21:06:16.286Z,11.50
2022-11-27T21:08:43.207Z,11.50
2022-11-27T21:11:36.745Z,11.50
2022-11-27T21:14:06.564Z,11.50
2022-11-27T21:16:35.271Z,11.40
2022-11-27T21:19:05.756Z,11.40
2022-11-27T21:21:32.842Z,11.40
2022-11-27T21:23:59.961Z,11.40
2022-11-27T21:26:28.591Z,11.40
2022-11-27T21:28:56.554Z,11.40
2022-11-27T21:31:25.422Z,11.40
2022-11-27T21:33:57.264Z,11.40
2022-11-27T21:36:25.744Z,11.40
2022-11-27T21:38:52.951Z,11.40
2022-11-27T21:41:20.072Z,11.40
2022-11-27T21:43:48.319Z,11.30
2022-11-27T21:46:19.936Z,11.30
2022-11-27T21:48:47.706Z,11.30
2022-11-27T21:51:19.051Z,11.30
2022-11-27T21:53:47.401Z,11.30
2022-11-27T21:56:15.627Z,11.30
2022-11-27T21:58:42.975Z,11.30
2022-11-27T22:01:11.984Z,11.30
2022-11-27T22:03:42.537Z,11.30
2022-11-27T22:06:16.307Z,11.30
2022-11-27T22:08:43.770Z,11.30
2022-11-27T22:11:12.684Z,11.30
2022-11-27T22:13:39.677Z,11.30
2022-11-27T22:16:13.041Z,11.30
2022-11-27T22:18:40.771Z,11.30
2022-11-27T22:21:12.671Z,11.30
2022-11-27T22:23:40.311Z,11.30
2022-11-27T22:26:09.982Z,11.30
2022-11-27T22:28:40.085Z,11.30
2022-11-27T22:31:19.080Z,11.30
2022-11-27T22:33:46.218Z,11.20
2022-11-27T22:36:25.202Z,11.20
2022-11-27T22:38:59.046Z,11.20
2022-11-27T22:41:27.691Z,11.20
2022-11-27T22:43:54.719Z,11.20
2022-11-27T22:46:25.295Z,11.20
2022-11-27T22:48:56.209Z,11.20
2022-11-27T22:51:23.402Z,11.20
2022-11-27T22:53:50.350Z,11.20
2022-11-27T22:56:17.454Z,11.20
2022-11-27T22:58:44.400Z,11.20
2022-11-27T23:01:18.709Z,11.10
2022-11-27T23:03:45.787Z,11.10
2022-11-27T23:06:14.554Z,11.10
2022-11-27T23:08:42.214Z,11.10
2022-11-27T23:11:10.099Z,11.10
2022-11-27T23:13:37.049Z,11.10
2022-11-27T23:16:06.291Z,11.10
2022-11-27T23:18:33.785Z,11.00
2022-11-27T23:21:10.581Z,11.00
2022-11-27T23:23:37.417Z,10.90
2022-11-27T23:26:11.196Z,10.90
2022-11-27T23:28:42.114Z,10.90
2022-11-27T23:31:32.484Z,10.90
2022-11-27T23:34:01.676Z,10.90
2022-11-27T23:36:29.044Z,10.80
2022-11-27T23:38:56.048Z,10.80
2022-11-27T23:41:23.837Z,10.80
2022-11-27T23:43:52.007Z,10.80
2022-11-27T23:46:20.710Z,10.70
2022-11-27T23:48:47.783Z,10.70
2022-11-27T23:51:20.072Z,10.70
2022-11-27T23:53:47.138Z,10.60
2022-11-27T23:56:15.741Z,10.60
2022-11-27T23:58:46.950Z,10.60
